ロメ の空港の天気 - METARとTAF

ロメ空港 ( DXXX / LFW ) - トーゴ ロメ
飛行場実況気象(Metar)
観測時間10/22 12:00 GMT (10/22 12:00 UTC)
風向・風速南 5m/s
視程10km以上
天気現象
少しの雲 雲底高度 430m
気温31℃
湿度70%
気圧1012hPa
METARDXXX 221200Z 19010KT 150V220 9999 FEW014 31/25 Q1012 NOSIG
過去の天気等 Google飛行場航空写真 Wunderground天気予報

過去48時間のMETAR

飛行場予報(TAF)
発表時間: 10/22 11:00 GMT (10/22 11:00 UTC)
予報対象時間: 22日12時 GMT ~ 23日18時 GMT
風向・風速南南西 5m/s
視程10km以上
少しの雲 雲底高度 430m
22日22時 GMT ~ 22日24時 GMT に徐々に
風向・風速西 3m/s
23日8時 GMT ~ 23日10時 GMT に徐々に
風向・風速南南西 5m/s
TAF DXXX 221100Z 2212/2318 20010KT 9999 FEW014
BECMG 2222/2224 26005KT
BECMG 2308/2310 20010KT